Time;durP1;ratioP1;P1;durP2;ratioP2;P2;SDS_P1;SDS_P2;PMS_P1;PMS_P2;Temp;Humidity;BMP_temperature;BMP_pressure;BME280_temperature;BME280_humidity;BME280_pressure;Samples;Min_cycle;Max_cycle;Signal;HPM_P1;HPM_P2
2023/03/20 00:10:40;;;;;;;55.22;31.25;;;;;;;;;;5080022;28;20041;-93
2023/03/20 00:13:07;;;;;;;61.88;31.63;;;;;;;;;;5062264;28;20024;-94
2023/03/20 00:18:23;;;;;;;53.83;30.92;;;;;;;;;;5079738;28;20032;-94
2023/03/20 00:20:50;;;;;;;58.90;32.88;;;;;;;;;;5079734;28;20091;-93
2023/03/20 00:23:17;;;;;;;62.30;35.35;;;;;;;;;;5079356;28;20036;-92
2023/03/20 00:25:43;;;;;;;55.53;32.97;;;;;;;;;;5079160;28;20426;-93
2023/03/20 00:28:31;;;;;;;54.85;32.22;;;;;;;;;;5062145;28;20029;-94
2023/03/20 00:37:32;;;;;;;50.00;29.10;;;;;;;;;;5079235;28;20101;-93
2023/03/20 00:39:58;;;;;;;53.45;30.27;;;;;;;;;;5061414;28;20028;-95
2023/03/20 00:42:24;;;;;;;54.28;31.77;;;;;;;;;;5079367;28;20103;-93
2023/03/20 00:44:56;;;;;;;55.95;32.55;;;;;;;;;;5061590;28;20475;-93
2023/03/20 00:47:23;;;;;;;;;;;;;;;;;;5079818;28;20035;-94
2023/03/20 00:49:50;;;;;;;56.75;31.73;;;;;;;;;;5079143;28;19904;-93
2023/03/20 00:52:17;;;;;;;60.10;34.47;;;;;;;;;;5079055;28;20116;-92
2023/03/20 00:54:43;;;;;;;55.30;33.00;;;;;;;;;;5078530;28;20029;-95
2023/03/20 00:57:14;;;;;;;51.80;32.03;;;;;;;;;;5079011;28;20024;-95
2023/03/20 01:00:01;;;;;;;48.33;30.85;;;;;;;;;;5060419;28;20107;-94
2023/03/20 01:02:28;;;;;;;48.63;30.45;;;;;;;;;;5078533;28;20028;-95
2023/03/20 01:04:54;;;;;;;53.70;31.88;;;;;;;;;;5079109;28;20031;-95
2023/03/20 01:07:21;;;;;;;70.18;38.45;;;;;;;;;;5078836;28;20020;-95
2023/03/20 01:09:47;;;;;;;86.65;46.88;;;;;;;;;;5078837;28;20070;-95
2023/03/20 01:12:13;;;;;;;98.50;51.67;;;;;;;;;;5078532;28;20318;-94
2023/03/20 01:14:40;;;;;;;105.38;54.97;;;;;;;;;;5060770;28;20058;-93
2023/03/20 01:17:10;;;;;;;109.38;54.40;;;;;;;;;;5078575;28;20024;-94
2023/03/20 01:19:36;;;;;;;100.93;53.25;;;;;;;;;;5060805;28;20060;-93
2023/03/20 01:22:02;;;;;;;90.00;50.78;;;;;;;;;;5078553;28;20024;-94
2023/03/20 01:24:28;;;;;;;89.30;46.63;;;;;;;;;;5077754;28;20056;-94
2023/03/20 01:26:55;;;;;;;85.70;45.58;;;;;;;;;;5060662;28;20020;-93
2023/03/20 01:29:22;;;;;;;80.57;45.38;;;;;;;;;;5078389;28;20021;-94
2023/03/20 01:32:27;;;;;;;77.47;42.00;;;;;;;;;;5060627;28;20368;-93
2023/03/20 01:34:53;;;;;;;78.00;41.55;;;;;;;;;;4997004;28;20471;-94
2023/03/20 01:37:25;;;;;;;76.93;41.42;;;;;;;;;;4997334;28;20424;-92
2023/03/20 01:39:51;;;;;;;68.28;40.22;;;;;;;;;;4997373;28;20030;-93
2023/03/20 01:42:17;;;;;;;73.40;41.13;;;;;;;;;;4997044;28;20053;-93
2023/03/20 01:44:44;;;;;;;66.18;39.78;;;;;;;;;;4997167;28;20114;-93
2023/03/20 01:50:16;;;;;;;70.82;40.28;;;;;;;;;;4997257;28;20438;-95
2023/03/20 01:52:42;;;;;;;66.15;38.30;;;;;;;;;;4996906;28;20047;-96
2023/03/20 01:55:08;;;;;;;70.22;41.22;;;;;;;;;;4996938;28;20125;-95
2023/03/20 01:57:36;;;;;;;66.45;38.72;;;;;;;;;;4996961;28;20302;-95
2023/03/20 02:00:04;;;;;;;75.95;41.05;;;;;;;;;;4996876;28;20034;-94
2023/03/20 02:02:31;;;;;;;71.30;39.85;;;;;;;;;;4996754;28;20022;-94
2023/03/20 02:05:00;;;;;;;76.18;40.17;;;;;;;;;;5016184;28;20044;-96
2023/03/20 02:07:26;;;;;;;73.90;40.65;;;;;;;;;;5077687;28;20056;-93
2023/03/20 02:09:52;;;;;;;73.80;43.33;;;;;;;;;;5077865;28;20038;-95
2023/03/20 02:12:19;;;;;;;70.32;42.40;;;;;;;;;;5060163;28;20028;-94
2023/03/20 02:14:46;;;;;;;77.97;43.17;;;;;;;;;;5060077;28;20093;-95
2023/03/20 02:20:40;;;;;;;71.15;43.30;;;;;;;;;;5077882;28;20070;-95
2023/03/20 02:23:06;;;;;;;63.15;37.28;;;;;;;;;;5059823;28;20106;-95
2023/03/20 02:25:42;;;;;;;60.92;34.75;;;;;;;;;;5059830;28;20087;-93
2023/03/20 02:28:23;;;;;;;50.30;33.10;;;;;;;;;;5060018;28;20461;-94
2023/03/20 02:31:08;;;;;;;56.08;33.72;;;;;;;;;;5060090;28;20509;-95
2023/03/20 02:36:50;;;;;;;66.30;40.60;;;;;;;;;;5077812;28;20047;-94
2023/03/20 02:39:35;;;;;;;60.60;37.25;;;;;;;;;;5077628;28;20020;-95
2023/03/20 02:42:30;;;;;;;54.58;34.10;;;;;;;;;;5059807;28;20025;-91
2023/03/20 02:45:03;;;;;;;52.80;34.08;;;;;;;;;;5055957;28;20027;-93
2023/03/20 02:47:35;;;;;;;51.08;32.40;;;;;;;;;;5077276;28;20025;-93
2023/03/20 02:50:10;;;;;;;45.22;29.05;;;;;;;;;;5059628;28;20024;-93
2023/03/20 02:53:07;;;;;;;46.50;29.23;;;;;;;;;;5077503;28;20028;-95
2023/03/20 02:55:33;;;;;;;45.80;29.52;;;;;;;;;;4996184;28;20046;-94
2023/03/20 02:58:22;;;;;;;42.17;28.35;;;;;;;;;;4996429;28;20491;-93
2023/03/20 03:00:57;;;;;;;41.25;25.70;;;;;;;;;;4988726;28;20130;-93
2023/03/20 03:03:35;;;;;;;38.00;25.73;;;;;;;;;;4996261;28;20054;-95
2023/03/20 03:06:05;;;;;;;40.67;24.38;;;;;;;;;;4996371;28;20038;-93
2023/03/20 03:08:33;;;;;;;41.58;25.65;;;;;;;;;;4996166;28;20125;-93
2023/03/20 03:11:03;;;;;;;37.97;24.92;;;;;;;;;;4996256;28;20073;-93
2023/03/20 03:13:31;;;;;;;38.55;24.63;;;;;;;;;;4996208;28;20069;-92
2023/03/20 03:16:01;;;;;;;40.78;24.73;;;;;;;;;;4996016;28;20092;-91
2023/03/20 03:18:28;;;;;;;40.70;26.52;;;;;;;;;;4996124;28;20063;-93
2023/03/20 03:20:57;;;;;;;35.17;25.42;;;;;;;;;;4996252;28;20105;-94
2023/03/20 03:23:30;;;;;;;37.80;25.02;;;;;;;;;;4999130;28;20158;-92
2023/03/20 03:26:00;;;;;;;39.60;24.95;;;;;;;;;;4999470;28;20146;-95
2023/03/20 03:28:35;;;;;;;39.35;25.85;;;;;;;;;;4999597;28;20360;-94
2023/03/20 03:31:02;;;;;;;44.33;27.30;;;;;;;;;;5011531;28;20037;-94
2023/03/20 03:33:29;;;;;;;40.20;26.88;;;;;;;;;;5080693;28;20024;-93
2023/03/20 03:36:07;;;;;;;45.42;28.67;;;;;;;;;;5080256;28;20327;-96
2023/03/20 03:38:44;;;;;;;50.53;31.00;;;;;;;;;;5080839;28;20021;-94
2023/03/20 03:41:25;;;;;;;58.45;32.45;;;;;;;;;;5080341;28;20096;-93
2023/03/20 03:43:51;;;;;;;60.30;35.38;;;;;;;;;;5062699;28;20141;-95
2023/03/20 03:49:26;;;;;;;61.40;35.97;;;;;;;;;;5080508;28;20063;-93
2023/03/20 03:51:56;;;;;;;57.28;34.88;;;;;;;;;;5080292;28;20048;-93
2023/03/20 03:54:24;;;;;;;60.05;34.25;;;;;;;;;;5062109;28;20129;-93
2023/03/20 03:56:51;;;;;;;60.17;34.63;;;;;;;;;;5080096;28;20033;-93
2023/03/20 03:59:21;;;;;;;62.42;36.28;;;;;;;;;;5080067;28;20025;-94
2023/03/20 04:01:49;;;;;;;58.47;35.58;;;;;;;;;;5080217;28;20399;-94
2023/03/20 04:04:16;;;;;;;60.05;35.10;;;;;;;;;;5079843;28;20481;-94
2023/03/20 04:06:42;;;;;;;56.65;35.13;;;;;;;;;;5062203;28;20031;-93
2023/03/20 04:09:09;;;;;;;56.40;35.13;;;;;;;;;;5079958;28;20024;-94
2023/03/20 04:11:35;;;;;;;56.88;33.95;;;;;;;;;;5079924;28;20342;-94
2023/03/20 04:14:01;;;;;;;57.22;33.40;;;;;;;;;;5080114;28;20452;-95
2023/03/20 04:16:27;;;;;;;49.55;31.85;;;;;;;;;;5079843;28;20021;-94
2023/03/20 04:18:54;;;;;;;49.47;31.40;;;;;;;;;;5079812;28;20067;-92
2023/03/20 04:21:21;;;;;;;52.75;30.85;;;;;;;;;;5061935;28;20418;-93
2023/03/20 04:23:47;;;;;;;51.70;30.60;;;;;;;;;;5079734;28;20028;-95
2023/03/20 04:26:13;;;;;;;48.65;30.67;;;;;;;;;;5079288;28;20060;-93
2023/03/20 04:28:39;;;;;;;49.47;30.40;;;;;;;;;;5079116;28;20033;-93
2023/03/20 04:31:06;;;;;;;47.70;28.48;;;;;;;;;;5061931;28;20029;-92
2023/03/20 04:33:32;;;;;;;41.55;28.00;;;;;;;;;;5079536;28;20017;-91
2023/03/20 04:35:58;;;;;;;44.08;27.42;;;;;;;;;;5061655;28;20035;-93
2023/03/20 04:38:24;;;;;;;40.33;26.02;;;;;;;;;;5079039;28;20345;-93
2023/03/20 04:40:50;;;;;;;46.97;28.23;;;;;;;;;;5061559;28;20024;-93
2023/03/20 04:43:16;;;;;;;43.05;26.83;;;;;;;;;;5079826;28;20017;-84
2023/03/20 04:45:43;;;;;;;48.63;28.95;;;;;;;;;;5061133;28;20052;-84
2023/03/20 04:48:09;;;;;;;62.30;35.45;;;;;;;;;;5060544;28;20032;-85
2023/03/20 04:50:35;;;;;;;63.83;36.97;;;;;;;;;;5078565;28;20033;-84
2023/03/20 04:53:01;;;;;;;65.10;35.70;;;;;;;;;;5078791;28;20028;-84
2023/03/20 04:55:27;;;;;;;67.43;37.60;;;;;;;;;;5078572;28;20069;-84
2023/03/20 04:57:53;;;;;;;77.22;40.60;;;;;;;;;;5078494;28;20029;-84
2023/03/20 05:00:20;;;;;;;93.35;48.17;;;;;;;;;;5078444;28;20119;-84
2023/03/20 05:02:46;;;;;;;102.28;50.92;;;;;;;;;;5060170;28;20150;-84
2023/03/20 05:05:12;;;;;;;83.78;44.22;;;;;;;;;;5061191;28;20031;-84
2023/03/20 05:07:38;;;;;;;63.40;36.55;;;;;;;;;;5078313;28;20024;-84
2023/03/20 05:10:05;;;;;;;55.80;33.90;;;;;;;;;;5078274;28;20402;-84
2023/03/20 05:12:31;;;;;;;59.40;32.22;;;;;;;;;;5078243;28;20021;-84
2023/03/20 05:14:57;;;;;;;61.83;33.08;;;;;;;;;;5078538;28;20025;-84
2023/03/20 05:17:23;;;;;;;64.28;34.53;;;;;;;;;;5060130;28;20127;-84
2023/03/20 05:19:50;;;;;;;57.72;33.28;;;;;;;;;;5078240;28;20394;-83
2023/03/20 05:22:19;;;;;;;57.20;33.25;;;;;;;;;;5078269;28;20024;-84
2023/03/20 05:24:45;;;;;;;49.58;29.60;;;;;;;;;;5077888;28;20453;-84
2023/03/20 05:27:11;;;;;;;50.47;29.83;;;;;;;;;;5060239;28;20047;-84
2023/03/20 05:29:37;;;;;;;58.83;35.40;;;;;;;;;;5078112;28;20044;-84
2023/03/20 05:32:03;;;;;;;64.75;39.63;;;;;;;;;;5077933;28;20028;-84
2023/03/20 05:34:29;;;;;;;87.43;44.28;;;;;;;;;;5077780;28;20055;-84
2023/03/20 05:36:55;;;;;;;78.57;45.42;;;;;;;;;;5078536;28;20024;-84
2023/03/20 05:39:21;;;;;;;80.00;46.25;;;;;;;;;;5077884;28;20040;-84
2023/03/20 05:41:48;;;;;;;80.10;46.55;;;;;;;;;;5078076;28;20296;-84
2023/03/20 05:44:14;;;;;;;84.28;46.08;;;;;;;;;;5059913;28;20021;-84
2023/03/20 05:46:40;;;;;;;99.82;51.17;;;;;;;;;;5077472;28;20025;-84
2023/03/20 05:49:25;;;;;;;106.07;55.47;;;;;;;;;;5077963;28;20027;-84
2023/03/20 05:51:51;;;;;;;143.73;65.47;;;;;;;;;;5077631;28;20100;-84
2023/03/20 05:54:17;;;;;;;138.90;66.55;;;;;;;;;;5077618;28;20082;-84
2023/03/20 05:56:43;;;;;;;134.93;66.38;;;;;;;;;;5077801;28;20357;-84
2023/03/20 05:59:10;;;;;;;114.07;61.30;;;;;;;;;;5077524;28;20024;-84
2023/03/20 06:01:36;;;;;;;96.00;54.40;;;;;;;;;;5077741;28;20023;-84
2023/03/20 06:04:02;;;;;;;74.82;45.85;;;;;;;;;;5077407;28;20044;-84
2023/03/20 06:06:28;;;;;;;67.93;42.75;;;;;;;;;;5059784;28;20308;-84
2023/03/20 06:08:55;;;;;;;69.93;43.05;;;;;;;;;;5077320;28;20074;-84
2023/03/20 06:11:21;;;;;;;53.95;35.20;;;;;;;;;;5077388;28;20326;-84
2023/03/20 06:13:48;;;;;;;52.78;32.92;;;;;;;;;;5077650;28;20103;-84
2023/03/20 06:16:14;;;;;;;54.50;32.03;;;;;;;;;;5077519;28;20029;-84
2023/03/20 06:21:43;;;;;;;60.15;37.53;;;;;;;;;;5077287;28;20032;-84
2023/03/20 06:24:09;;;;;;;67.57;39.63;;;;;;;;;;5076942;28;20124;-84
2023/03/20 06:38:09;;;;;;;63.40;36.60;;;;;;;;;;5135867;27;20412;-84
2023/03/20 06:40:35;;;;;;;62.90;38.53;;;;;;;;;;5135571;28;20031;-85
2023/03/20 06:43:20;;;;;;;69.90;42.22;;;;;;;;;;5135007;28;20016;-84
2023/03/20 06:45:47;;;;;;;81.90;54.20;;;;;;;;;;5117550;28;20038;-84
2023/03/20 06:48:13;;;;;;;71.55;46.83;;;;;;;;;;5135375;28;20488;-85
2023/03/20 06:50:39;;;;;;;64.80;42.70;;;;;;;;;;5135374;28;20103;-84
2023/03/20 06:53:05;;;;;;;68.22;44.22;;;;;;;;;;5135515;28;20094;-85
2023/03/20 06:55:32;;;;;;;69.70;44.88;;;;;;;;;;5135708;28;20024;-85
2023/03/20 06:57:58;;;;;;;56.92;36.60;;;;;;;;;;5117135;28;20027;-84
2023/03/20 07:00:24;;;;;;;49.20;33.53;;;;;;;;;;5135153;28;20427;-85
2023/03/20 07:02:50;;;;;;;41.25;25.40;;;;;;;;;;5135302;28;20020;-85
2023/03/20 07:05:17;;;;;;;37.13;24.40;;;;;;;;;;5135142;28;20372;-85
2023/03/20 07:07:43;;;;;;;34.30;22.17;;;;;;;;;;5135084;28;20024;-84
2023/03/20 07:10:11;;;;;;;31.55;19.95;;;;;;;;;;5135034;28;20408;-85
2023/03/20 07:12:37;;;;;;;31.42;19.27;;;;;;;;;;5135037;28;20083;-85
2023/03/20 07:15:04;;;;;;;32.35;19.15;;;;;;;;;;5116864;28;20020;-85
2023/03/20 07:17:30;;;;;;;25.85;18.05;;;;;;;;;;5134927;28;20038;-84
2023/03/20 07:19:56;;;;;;;32.30;18.60;;;;;;;;;;5116797;28;20028;-85
2023/03/20 07:22:24;;;;;;;24.48;15.57;;;;;;;;;;5134689;28;20020;-85
2023/03/20 07:24:50;;;;;;;24.48;14.48;;;;;;;;;;5134830;28;20428;-84
2023/03/20 07:27:16;;;;;;;21.33;13.88;;;;;;;;;;5116707;28;20016;-85
2023/03/20 07:29:43;;;;;;;23.33;12.70;;;;;;;;;;5134838;28;20028;-85
2023/03/20 07:32:09;;;;;;;21.15;12.32;;;;;;;;;;5134633;28;20115;-84
2023/03/20 07:34:35;;;;;;;18.27;11.10;;;;;;;;;;5133190;28;20031;-84
2023/03/20 07:37:01;;;;;;;19.70;10.70;;;;;;;;;;5132805;27;20475;-84
2023/03/20 07:39:27;;;;;;;19.80;12.10;;;;;;;;;;5120622;28;20043;-84
2023/03/20 07:41:54;;;;;;;20.58;12.27;;;;;;;;;;5120759;28;20047;-85
2023/03/20 07:44:20;;;;;;;18.63;10.85;;;;;;;;;;5120778;28;20064;-85
2023/03/20 07:46:46;;;;;;;16.70;9.85;;;;;;;;;;5120654;28;20065;-85
2023/03/20 07:49:18;;;;;;;14.32;8.10;;;;;;;;;;5120513;28;20023;-84
2023/03/20 07:51:44;;;;;;;;;;;;;;;;;;5119329;28;20023;-84
2023/03/20 07:54:10;;;;;;;11.88;6.78;;;;;;;;;;5120506;28;19903;-84
2023/03/20 07:56:36;;;;;;;10.32;6.00;;;;;;;;;;5120793;28;20043;-85
2023/03/20 07:59:02;;;;;;;9.70;6.32;;;;;;;;;;5120334;28;20096;-84
2023/03/20 08:01:29;;;;;;;11.32;5.07;;;;;;;;;;5119280;28;20023;-84
2023/03/20 08:03:55;;;;;;;10.00;5.03;;;;;;;;;;5120388;28;20023;-85
2023/03/20 08:06:21;;;;;;;9.95;5.00;;;;;;;;;;5120422;28;20028;-85
2023/03/20 08:08:50;;;;;;;12.18;5.13;;;;;;;;;;5119261;28;20027;-84
2023/03/20 08:11:16;;;;;;;7.60;4.32;;;;;;;;;;5120115;28;20051;-84
2023/03/20 08:13:42;;;;;;;7.53;4.40;;;;;;;;;;5120057;28;20064;-84
2023/03/20 08:16:09;;;;;;;7.32;4.35;;;;;;;;;;5120075;28;20032;-84
2023/03/20 08:18:35;;;;;;;8.95;4.60;;;;;;;;;;5119874;28;20320;-84
2023/03/20 08:21:01;;;;;;;12.32;5.25;;;;;;;;;;5119957;28;20453;-84
2023/03/20 08:23:27;;;;;;;8.70;4.72;;;;;;;;;;5120112;28;20035;-84
2023/03/20 08:25:53;;;;;;;7.20;4.70;;;;;;;;;;5118739;28;20432;-84
2023/03/20 08:28:20;;;;;;;7.38;4.63;;;;;;;;;;5119793;28;20035;-84
2023/03/20 08:30:46;;;;;;;10.13;4.28;;;;;;;;;;5118490;28;20019;-84
2023/03/20 08:33:12;;;;;;;11.15;4.60;;;;;;;;;;5118599;28;20059;-84
2023/03/20 08:35:39;;;;;;;7.10;4.38;;;;;;;;;;5119827;27;20039;-84
2023/03/20 08:38:05;;;;;;;9.10;4.63;;;;;;;;;;5119627;27;20047;-84
2023/03/20 08:40:31;;;;;;;12.45;4.82;;;;;;;;;;5118622;27;20123;-84
2023/03/20 08:42:57;;;;;;;10.90;4.47;;;;;;;;;;5132794;27;20027;-84
2023/03/20 08:45:25;;;;;;;6.65;4.68;;;;;;;;;;5140128;27;20107;-84
2023/03/20 08:47:51;;;;;;;10.00;5.28;;;;;;;;;;5139062;27;20015;-84
2023/03/20 08:50:17;;;;;;;8.48;5.03;;;;;;;;;;5138924;27;20423;-83
2023/03/20 08:52:45;;;;;;;13.82;5.30;;;;;;;;;;5140072;27;20127;-84
2023/03/20 08:55:12;;;;;;;9.05;4.32;;;;;;;;;;5140269;27;20023;-84
2023/03/20 08:57:38;;;;;;;9.35;4.60;;;;;;;;;;5139647;27;20050;-84
2023/03/20 09:00:06;;;;;;;9.65;3.92;;;;;;;;;;5139740;27;20046;-84
2023/03/20 09:02:32;;;;;;;6.60;3.97;;;;;;;;;;5139632;27;20015;-84
2023/03/20 09:04:58;;;;;;;7.35;3.67;;;;;;;;;;5140003;27;20114;-84
2023/03/20 09:07:24;;;;;;;12.07;4.13;;;;;;;;;;5139769;27;20043;-84
2023/03/20 09:09:50;;;;;;;7.78;4.07;;;;;;;;;;5138560;27;20023;-84
2023/03/20 09:12:16;;;;;;;10.23;3.95;;;;;;;;;;5139374;27;20027;-84
2023/03/20 09:14:42;;;;;;;7.68;3.40;;;;;;;;;;5138604;27;20064;-87
2023/03/20 09:17:08;;;;;;;4.55;2.85;;;;;;;;;;5138211;27;20035;-84
2023/03/20 09:19:36;;;;;;;3.75;2.60;;;;;;;;;;5139288;27;20104;-84
2023/03/20 09:22:02;;;;;;;7.47;3.53;;;;;;;;;;5139168;27;20020;-84
2023/03/20 09:24:30;;;;;;;4.95;2.95;;;;;;;;;;5139404;27;20019;-84
2023/03/20 09:26:56;;;;;;;6.80;3.83;;;;;;;;;;5138109;27;20031;-84
2023/03/20 09:29:24;;;;;;;8.80;3.67;;;;;;;;;;5137749;27;20019;-84
2023/03/20 09:31:52;;;;;;;9.48;4.38;;;;;;;;;;5139273;27;20025;-84
2023/03/20 09:34:18;;;;;;;7.55;4.22;;;;;;;;;;5139075;27;20027;-84
2023/03/20 09:36:46;;;;;;;6.75;3.70;;;;;;;;;;5138464;27;20050;-84
2023/03/20 09:39:12;;;;;;;7.25;4.22;;;;;;;;;;5138914;27;20134;-84
2023/03/20 09:41:39;;;;;;;6.60;3.65;;;;;;;;;;5138848;27;20019;-84
2023/03/20 09:44:18;;;;;;;8.25;3.83;;;;;;;;;;5137916;27;20110;-84
2023/03/20 09:46:56;;;;;;;6.30;3.22;;;;;;;;;;5138758;27;20073;-84
2023/03/20 09:49:37;;;;;;;7.30;3.67;;;;;;;;;;5137682;27;20023;-84
2023/03/20 09:52:22;;;;;;;7.45;3.33;;;;;;;;;;5138834;27;20027;-84
2023/03/20 09:54:50;;;;;;;7.30;3.28;;;;;;;;;;5137707;27;20043;-84
2023/03/20 09:57:19;;;;;;;9.88;3.60;;;;;;;;;;5138537;27;20035;-84
2023/03/20 09:59:48;;;;;;;7.97;3.67;;;;;;;;;;5138907;27;20106;-84
2023/03/20 10:02:23;;;;;;;6.05;3.60;;;;;;;;;;5137353;27;20031;-84
2023/03/20 10:04:49;;;;;;;6.75;3.08;;;;;;;;;;5137568;27;20034;-84
2023/03/20 10:07:17;;;;;;;7.28;3.22;;;;;;;;;;5138185;27;20428;-83
2023/03/20 10:09:44;;;;;;;8.80;3.85;;;;;;;;;;5138579;27;20072;-84
2023/03/20 10:12:17;;;;;;;5.82;3.17;;;;;;;;;;5138692;27;20038;-84
2023/03/20 10:14:49;;;;;;;10.32;3.50;;;;;;;;;;5138770;27;20075;-85
2023/03/20 10:17:15;;;;;;;;;;;;;;;;;;5137533;27;20031;-84
2023/03/20 10:20:00;;;;;;;6.65;3.35;;;;;;;;;;5137045;27;19981;-84
2023/03/20 10:22:31;;;;;;;8.55;3.67;;;;;;;;;;5138243;27;20059;-83
2023/03/20 10:25:03;;;;;;;8.52;3.28;;;;;;;;;;5138384;28;20098;-82
2023/03/20 10:27:32;;;;;;;7.30;3.35;;;;;;;;;;5137129;28;20120;-82
2023/03/20 10:29:58;;;;;;;9.50;3.90;;;;;;;;;;5138138;27;20030;-82
2023/03/20 10:32:45;;;;;;;9.63;3.83;;;;;;;;;;5138026;28;20339;-82
2023/03/20 10:35:14;;;;;;;6.75;3.70;;;;;;;;;;5058479;28;20040;-83
2023/03/20 10:37:42;;;;;;;8.85;3.35;;;;;;;;;;5058253;28;20052;-84
2023/03/20 10:40:19;;;;;;;5.82;3.28;;;;;;;;;;5075325;28;20092;-83
2023/03/20 10:42:47;;;;;;;10.18;3.78;;;;;;;;;;5058316;28;20329;-84
2023/03/20 10:45:29;;;;;;;10.20;3.75;;;;;;;;;;5075289;28;20116;-84
2023/03/20 10:47:59;;;;;;;6.95;3.13;;;;;;;;;;5074578;28;20029;-83
2023/03/20 10:50:34;;;;;;;10.10;3.63;;;;;;;;;;5075193;28;20025;-84
2023/03/20 10:53:04;;;;;;;9.18;3.70;;;;;;;;;;5075086;28;20326;-83
2023/03/20 10:55:32;;;;;;;8.48;3.88;;;;;;;;;;5075334;28;20120;-83
2023/03/20 10:58:02;;;;;;;7.78;3.78;;;;;;;;;;5058315;28;20325;-84
2023/03/20 11:00:28;;;;;;;10.18;3.35;;;;;;;;;;5075192;28;20070;-84
2023/03/20 11:02:55;;;;;;;7.22;3.40;;;;;;;;;;5075084;28;20036;-84
2023/03/20 11:05:34;;;;;;;11.02;3.55;;;;;;;;;;5058262;28;20036;-84
2023/03/20 11:08:07;;;;;;;14.40;4.78;;;;;;;;;;5075002;28;20032;-85
2023/03/20 11:10:36;;;;;;;11.55;3.53;;;;;;;;;;5075247;28;20414;-85
2023/03/20 11:13:21;;;;;;;8.45;3.45;;;;;;;;;;5124324;27;20153;-85
2023/03/20 11:15:50;;;;;;;10.95;4.53;;;;;;;;;;5140891;27;20030;-85
2023/03/20 11:18:16;;;;;;;8.55;3.63;;;;;;;;;;5141962;27;20034;-85
2023/03/20 11:20:55;;;;;;;5.10;3.08;;;;;;;;;;5140850;27;20051;-84
2023/03/20 11:23:26;;;;;;;8.00;2.78;;;;;;;;;;5141808;27;20412;-85
2023/03/20 11:25:59;;;;;;;12.65;3.80;;;;;;;;;;5141597;27;20019;-85
2023/03/20 11:28:35;;;;;;;9.80;3.28;;;;;;;;;;5140499;27;20126;-85
2023/03/20 11:31:04;;;;;;;8.30;3.50;;;;;;;;;;5141579;27;20030;-84
2023/03/20 11:33:31;;;;;;;7.93;3.83;;;;;;;;;;5141688;27;20030;-85
2023/03/20 11:35:58;;;;;;;7.25;3.00;;;;;;;;;;5141173;27;20282;-85
2023/03/20 11:38:24;;;;;;;5.47;2.97;;;;;;;;;;5141383;27;20058;-85
2023/03/20 11:40:54;;;;;;;4.13;2.50;;;;;;;;;;5141352;27;20026;-86
2023/03/20 11:43:25;;;;;;;7.20;3.22;;;;;;;;;;5141313;27;20024;-83
2023/03/20 11:45:59;;;;;;;7.47;4.40;;;;;;;;;;5141280;27;20369;-85
2023/03/20 11:48:26;;;;;;;13.00;5.90;;;;;;;;;;5141230;27;20480;-85
2023/03/20 11:51:25;;;;;;;5.90;3.67;;;;;;;;;;5141538;27;20088;-85
2023/03/20 11:54:00;;;;;;;5.60;2.80;;;;;;;;;;5078081;28;20055;-85
2023/03/20 11:56:27;;;;;;;7.30;3.05;;;;;;;;;;5061216;28;20063;-85
2023/03/20 11:58:58;;;;;;;9.18;3.00;;;;;;;;;;5077780;28;20036;-85
2023/03/20 12:01:25;;;;;;;10.85;3.28;;;;;;;;;;5078049;28;20025;-85
2023/03/20 12:03:55;;;;;;;9.98;3.25;;;;;;;;;;5077956;28;20090;-85
2023/03/20 12:06:24;;;;;;;13.15;4.18;;;;;;;;;;5077827;28;20307;-85
2023/03/20 12:08:52;;;;;;;9.43;4.32;;;;;;;;;;5061123;28;20056;-85
2023/03/20 12:11:38;;;;;;;8.93;3.10;;;;;;;;;;5078052;28;20044;-85
2023/03/20 12:14:06;;;;;;;5.80;3.72;;;;;;;;;;5077867;28;20017;-85
2023/03/20 12:16:34;;;;;;;7.28;4.65;;;;;;;;;;5077552;28;20033;-85
2023/03/20 12:19:02;;;;;;;9.52;3.65;;;;;;;;;;5077731;28;20442;-85
2023/03/20 12:21:28;;;;;;;8.32;4.35;;;;;;;;;;5060740;28;20060;-84
2023/03/20 12:24:00;;;;;;;5.93;3.00;;;;;;;;;;5077497;28;20063;-84
2023/03/20 12:26:26;;;;;;;8.73;3.38;;;;;;;;;;5077323;28;20468;-84
2023/03/20 12:29:03;;;;;;;9.77;3.58;;;;;;;;;;5079701;27;20028;-84
2023/03/20 12:31:41;;;;;;;12.57;3.60;;;;;;;;;;5140596;27;20027;-84
2023/03/20 12:34:10;;;;;;;9.35;5.00;;;;;;;;;;5139443;27;20088;-84
2023/03/20 12:36:38;;;;;;;7.95;4.05;;;;;;;;;;5139934;27;20047;-85
2023/03/20 12:39:05;;;;;;;7.22;3.80;;;;;;;;;;5140036;27;20046;-84
2023/03/20 12:41:50;;;;;;;8.50;3.80;;;;;;;;;;5139189;27;20023;-84
2023/03/20 12:44:20;;;;;;;15.55;8.30;;;;;;;;;;5140039;27;20031;-84
2023/03/20 12:46:51;;;;;;;16.38;10.98;;;;;;;;;;5139196;27;20297;-85
2023/03/20 12:49:32;;;;;;;12.07;5.78;;;;;;;;;;5138862;27;20405;-84
2023/03/20 12:52:13;;;;;;;19.60;7.10;;;;;;;;;;5139866;27;20118;-85
2023/03/20 12:54:49;;;;;;;17.80;9.70;;;;;;;;;;5138881;27;20030;-84
2023/03/20 12:57:36;;;;;;;11.57;6.00;;;;;;;;;;5139813;27;20023;-85
2023/03/20 13:00:11;;;;;;;13.02;5.80;;;;;;;;;;5139937;27;20384;-84
2023/03/20 13:02:43;;;;;;;8.98;4.90;;;;;;;;;;5139822;27;20030;-84
2023/03/20 13:05:17;;;;;;;7.47;4.13;;;;;;;;;;5139767;27;20106;-84
2023/03/20 13:07:43;;;;;;;8.18;2.85;;;;;;;;;;5139533;27;20072;-84
2023/03/20 13:10:16;;;;;;;10.35;4.30;;;;;;;;;;5139439;27;20038;-83
2023/03/20 13:12:48;;;;;;;7.57;4.00;;;;;;;;;;5139458;27;20056;-84
2023/03/20 13:15:23;;;;;;;11.48;5.57;;;;;;;;;;5139402;27;20049;-84
2023/03/20 13:17:57;;;;;;;10.13;4.88;;;;;;;;;;5139529;27;20369;-83
2023/03/20 13:20:23;;;;;;;10.48;4.72;;;;;;;;;;5138448;27;20504;-84
2023/03/20 13:23:07;;;;;;;8.77;4.80;;;;;;;;;;5122661;27;20024;-84
2023/03/20 13:25:45;;;;;;;5.63;3.78;;;;;;;;;;5098463;28;20321;-84
2023/03/20 13:28:34;;;;;;;13.07;7.05;;;;;;;;;;5106694;28;20019;-84
2023/03/20 13:31:00;;;;;;;11.55;6.65;;;;;;;;;;5117707;28;20027;-84
2023/03/20 13:33:44;;;;;;;10.18;5.57;;;;;;;;;;5098536;28;20020;-85
2023/03/20 13:36:14;;;;;;;12.98;7.20;;;;;;;;;;5096439;28;20093;-84
2023/03/20 13:38:44;;;;;;;13.00;6.78;;;;;;;;;;5098204;28;20024;-84
2023/03/20 13:41:10;;;;;;;8.52;4.97;;;;;;;;;;5097130;28;20024;-84
2023/03/20 13:43:55;;;;;;;8.95;5.05;;;;;;;;;;5097984;28;20027;-84
2023/03/20 13:46:26;;;;;;;13.35;5.07;;;;;;;;;;5097988;28;20023;-84
2023/03/20 13:48:54;;;;;;;12.13;5.38;;;;;;;;;;5097141;28;20020;-85
2023/03/20 13:51:23;;;;;;;13.73;6.25;;;;;;;;;;5098530;28;20322;-83
2023/03/20 13:53:53;;;;;;;12.60;6.90;;;;;;;;;;5107706;28;20024;-84
2023/03/20 13:56:26;;;;;;;12.52;6.30;;;;;;;;;;5106419;28;20024;-85
2023/03/20 13:59:11;;;;;;;11.88;6.00;;;;;;;;;;5104567;28;20027;-85
2023/03/20 14:01:37;;;;;;;12.70;7.32;;;;;;;;;;5108418;28;20023;-85
2023/03/20 14:04:04;;;;;;;16.35;6.22;;;;;;;;;;5114429;28;20047;-84
2023/03/20 14:06:30;;;;;;;8.68;5.18;;;;;;;;;;5108961;28;20028;-83
2023/03/20 14:08:57;;;;;;;13.50;7.30;;;;;;;;;;5109079;28;20111;-84
2023/03/20 14:11:23;;;;;;;13.60;6.90;;;;;;;;;;5103076;28;20020;-85
2023/03/20 14:13:51;;;;;;;9.48;5.60;;;;;;;;;;5115904;28;20034;-84
2023/03/20 14:16:19;;;;;;;10.13;6.70;;;;;;;;;;5116332;28;20865;-84
2023/03/20 14:19:05;;;;;;;12.30;7.22;;;;;;;;;;5116889;28;20024;-84
2023/03/20 14:21:31;;;;;;;11.38;6.03;;;;;;;;;;5117896;28;20021;-84
2023/03/20 14:24:00;;;;;;;13.20;5.63;;;;;;;;;;5110974;28;20122;-84
2023/03/20 14:26:50;;;;;;;10.80;7.03;;;;;;;;;;5105375;28;20321;-85
2023/03/20 14:29:16;;;;;;;11.80;5.90;;;;;;;;;;5097427;28;20020;-85
2023/03/20 14:31:44;;;;;;;10.25;5.70;;;;;;;;;;5117064;28;20028;-84
2023/03/20 14:34:13;;;;;;;9.95;6.43;;;;;;;;;;5117797;28;20016;-84
2023/03/20 14:36:58;;;;;;;14.15;5.90;;;;;;;;;;5116095;28;20520;-83
2023/03/20 14:39:40;;;;;;;11.52;5.93;;;;;;;;;;5117553;28;20465;-82
2023/03/20 14:42:26;;;;;;;13.85;7.57;;;;;;;;;;5117126;28;20035;-83
2023/03/20 14:45:06;;;;;;;9.95;5.90;;;;;;;;;;5110751;28;20027;-82
2023/03/20 14:47:41;;;;;;;11.60;5.57;;;;;;;;;;5097745;28;20062;-83
2023/03/20 14:50:19;;;;;;;9.65;6.50;;;;;;;;;;5110996;28;20027;-83
2023/03/20 14:52:54;;;;;;;16.55;6.65;;;;;;;;;;5110464;28;20031;-83
2023/03/20 14:55:21;;;;;;;10.35;6.35;;;;;;;;;;5100877;28;20100;-83
2023/03/20 14:57:47;;;;;;;10.73;6.30;;;;;;;;;;5100968;28;20036;-82
2023/03/20 15:00:24;;;;;;;8.95;6.30;;;;;;;;;;5099956;28;20036;-83
2023/03/20 15:02:51;;;;;;;13.75;6.68;;;;;;;;;;5100828;28;20035;-82
2023/03/20 15:05:27;;;;;;;12.82;5.97;;;;;;;;;;5118319;28;20102;-83
2023/03/20 15:07:55;;;;;;;12.25;7.22;;;;;;;;;;5115972;28;20039;-83
2023/03/20 15:10:21;;;;;;;10.32;7.03;;;;;;;;;;5100846;28;20501;-83
2023/03/20 15:12:49;;;;;;;13.45;7.15;;;;;;;;;;5100885;28;20020;-82
2023/03/20 15:15:27;;;;;;;13.00;5.78;;;;;;;;;;5100598;28;20024;-82
2023/03/20 15:17:54;;;;;;;11.52;5.75;;;;;;;;;;5112814;27;20415;-81
2023/03/20 15:20:21;;;;;;;11.50;6.22;;;;;;;;;;5099732;28;20115;-82
2023/03/20 15:22:52;;;;;;;14.93;6.45;;;;;;;;;;5110941;28;20051;-82
2023/03/20 15:25:19;;;;;;;12.05;6.60;;;;;;;;;;5121106;28;20027;-89
2023/03/20 15:27:45;;;;;;;12.73;7.07;;;;;;;;;;5119746;28;20365;-81
2023/03/20 15:30:14;;;;;;;12.55;6.43;;;;;;;;;;5101552;28;20035;-82